DTKA/TBJ METAR and TAF weather

Enter ICAO airport designator
Station Type Date Time Source
DTKA METAR 2023/02/04 03:00 UTC NOAA

DTKA 040300Z VRB02KT 9999 SCT020 07/07 Q1027


Station Type Date Time Source
DTKA Decoded METAR 2023/02/04 03:00 UTC NOAA

Tabarka, Tunisia (DTKA) 36-57N 008-45E 21M
Feb 03, 2023 - 10:00 PM EST / 2023.02.04 0300 UTC
Wind: Variable at 2 MPH (2 KT):0
Visibility: greater than 7 mile(s):0
Sky conditions: partly cloudy
Temperature: 44 F (7 C)
Dew Point: 44 F (7 C)
Relative Humidity: 100%
Pressure (altimeter): 30.33 in. Hg (1027 hPa)
ob: DTKA 040300Z VRB02KT 9999 SCT020 07/07 Q1027
cycle: 3

Station Type Date Time Source
DTKA TAF 2022/12/13 22:00 UTC NOAA

TAF DTKA 132100Z 1322/1407 26008KT 9999 SCT020

Example: see airport list